Time;durP1;ratioP1;P1;durP2;ratioP2;P2;SDS_P1;SDS_P2;PMS_P1;PMS_P2;Temp;Humidity;BMP_temperature;BMP_pressure;BME280_temperature;BME280_humidity;BME280_pressure;Samples;Min_cycle;Max_cycle;Signal;HPM_P1;HPM_P2
2022/11/08 00:02:19;;;;;;;1.98;1.13;;;14.90;64.60;;;;;;5025006;28;20057;-71
2022/11/08 00:04:45;;;;;;;1.33;1.23;;;14.90;64.70;;;;;;5024908;28;20068;-71
2022/11/08 00:15:24;;;;;;;1.38;1.17;;;14.90;64.70;;;;;;5024799;28;20105;-71
2022/11/08 00:17:50;;;;;;;1.30;1.20;;;14.90;64.70;;;;;;5024609;28;20026;-71
2022/11/08 00:20:15;;;;;;;1.17;1.08;;;14.90;64.70;;;;;;5024699;28;20041;-71
2022/11/08 00:22:41;;;;;;;1.45;1.02;;;14.90;64.70;;;;;;5039927;28;20021;-71
2022/11/08 00:25:08;;;;;;;1.25;1.15;;;14.90;64.70;;;;;;5024609;28;20071;-72
2022/11/08 00:27:34;;;;;;;1.63;1.38;;;14.90;64.70;;;;;;5024363;28;20384;-71
2022/11/08 00:30:00;;;;;;;1.48;1.17;;;14.90;64.60;;;;;;5024482;28;20030;-72
2022/11/08 00:32:26;;;;;;;1.40;1.30;;;14.90;64.70;;;;;;5024484;28;20025;-71
2022/11/08 00:34:52;;;;;;;1.55;1.42;;;14.90;64.70;;;;;;5023566;28;20014;-71
2022/11/08 00:37:20;;;;;;;1.65;1.33;;;14.90;64.60;;;;;;5039700;28;20025;-71
2022/11/08 00:39:46;;;;;;;1.80;1.35;;;14.90;64.70;;;;;;5039512;28;20121;-73
2022/11/08 00:42:12;;;;;;;1.38;1.27;;;14.80;64.60;;;;;;5024285;28;20080;-73
2022/11/08 00:44:38;;;;;;;1.65;1.55;;;14.80;64.70;;;;;;5024268;28;20302;-73
2022/11/08 00:47:04;;;;;;;1.40;1.20;;;14.80;64.70;;;;;;5039566;28;20018;-73
2022/11/08 00:49:30;;;;;;;1.50;1.40;;;14.80;64.60;;;;;;5024234;28;20056;-71
2022/11/08 00:51:55;;;;;;;1.55;1.40;;;14.80;64.70;;;;;;5039499;28;20022;-70
2022/11/08 00:54:21;;;;;;;1.20;1.10;;;14.80;64.70;;;;;;5024081;28;20312;-73
2022/11/08 00:56:48;;;;;;;1.63;1.40;;;14.80;64.70;;;;;;5024059;28;20025;-72
2022/11/08 00:59:15;;;;;;;1.42;1.33;;;14.80;64.70;;;;;;5023962;28;20068;-71
2022/11/08 01:01:41;;;;;;;2.00;1.30;;;14.80;64.70;;;;;;5024019;28;20025;-71
2022/11/08 01:04:10;;;;;;;1.27;1.17;;;14.80;64.70;;;;;;5023967;28;20416;-71
2022/11/08 01:06:37;;;;;;;1.20;1.02;;;14.80;64.70;;;;;;5023938;28;20022;-70
2022/11/08 01:09:03;;;;;;;2.28;1.65;;;14.80;64.70;;;;;;5023910;28;20022;-71
2022/11/08 01:11:30;;;;;;;1.67;1.48;;;14.80;64.80;;;;;;5023858;28;20067;-71
2022/11/08 01:13:57;;;;;;;1.70;1.60;;;14.80;64.80;;;;;;5023837;28;20017;-71
2022/11/08 01:16:25;;;;;;;2.92;2.03;;;14.80;64.70;;;;;;5023849;28;20022;-71
2022/11/08 01:18:53;;;;;;;1.63;1.33;;;14.70;64.60;;;;;;5039015;28;20022;-71
2022/11/08 01:21:20;;;;;;;1.35;1.15;;;14.80;64.80;;;;;;5023795;28;20022;-71
2022/11/08 01:23:46;;;;;;;1.58;1.20;;;14.70;64.70;;;;;;5023727;28;20089;-71
2022/11/08 01:26:15;;;;;;;1.73;1.20;;;14.80;64.70;;;;;;5023688;28;20265;-71
2022/11/08 01:28:41;;;;;;;1.77;1.35;;;14.80;64.70;;;;;;5023485;28;20117;-70
2022/11/08 01:31:12;;;;;;;1.70;1.30;;;14.80;64.70;;;;;;5023635;28;20029;-71
2022/11/08 01:33:39;;;;;;;1.45;1.27;;;14.80;64.70;;;;;;5023684;28;20037;-71
2022/11/08 01:36:06;;;;;;;1.38;1.20;;;14.80;64.70;;;;;;5023587;28;20033;-71
2022/11/08 01:38:32;;;;;;;1.92;1.67;;;14.70;64.80;;;;;;5038847;28;20033;-71
2022/11/08 01:40:58;;;;;;;1.30;1.10;;;14.70;64.70;;;;;;5023548;28;20073;-71
2022/11/08 01:43:24;;;;;;;1.17;1.17;;;14.70;64.70;;;;;;5023501;28;20021;-72
2022/11/08 01:46:19;;;;;;;1.33;1.23;;;14.70;64.70;;;;;;5039948;28;20053;-71
2022/11/08 01:48:44;;;;;;;1.40;1.17;;;14.70;64.80;;;;;;5027371;28;20022;-71
2022/11/08 01:51:14;;;;;;;1.50;1.40;;;14.80;64.80;;;;;;5042746;28;20029;-71
2022/11/08 01:53:40;;;;;;;1.63;1.20;;;14.70;64.70;;;;;;5027454;28;20022;-72
2022/11/08 01:56:08;;;;;;;1.80;1.33;;;14.70;64.60;;;;;;5042715;28;20335;-72
2022/11/08 01:58:36;;;;;;;1.33;1.20;;;14.70;64.60;;;;;;5027260;28;20022;-71
2022/11/08 02:01:02;;;;;;;1.98;1.52;;;14.80;64.70;;;;;;5027246;28;20014;-71
2022/11/08 02:03:32;;;;;;;1.20;1.00;;;14.80;64.70;;;;;;5027194;28;20210;-72
2022/11/08 02:05:59;;;;;;;1.70;1.23;;;14.70;65.20;;;;;;5027214;28;20018;-72
2022/11/08 02:08:38;;;;;;;1.38;1.13;;;14.80;64.60;;;;;;5027114;28;20021;-71
2022/11/08 02:11:05;;;;;;;1.70;1.60;;;14.70;64.60;;;;;;5027097;28;20335;-71
2022/11/08 02:13:33;;;;;;;2.25;1.45;;;14.70;64.60;;;;;;5027015;28;20213;-72
2022/11/08 02:15:59;;;;;;;1.40;1.30;;;14.70;64.70;;;;;;5042396;28;20124;-72
2022/11/08 02:18:28;;;;;;;1.30;1.20;;;14.70;64.60;;;;;;5026862;28;20030;-72
2022/11/08 02:21:16;;;;;;;2.30;1.50;;;14.70;64.70;;;;;;5026884;28;20060;-71
2022/11/08 02:24:00;;;;;;;1.50;1.20;;;14.70;64.60;;;;;;5026913;28;20081;-71
2022/11/08 02:26:32;;;;;;;1.30;1.20;;;14.70;64.80;;;;;;5026852;28;20213;-72
2022/11/08 02:28:58;;;;;;;1.50;1.40;;;14.70;64.60;;;;;;5041909;28;20341;-71
2022/11/08 02:31:25;;;;;;;1.52;1.42;;;14.70;64.70;;;;;;5026710;28;20022;-71
2022/11/08 02:33:51;;;;;;;1.70;1.20;;;14.70;64.60;;;;;;5026614;28;20030;-72
2022/11/08 02:36:21;;;;;;;1.75;1.30;;;14.70;64.80;;;;;;5026615;28;20424;-72
2022/11/08 02:38:53;;;;;;;1.85;1.10;;;14.70;64.70;;;;;;5041934;28;20026;-71
2022/11/08 02:41:19;;;;;;;2.15;1.10;;;14.70;64.80;;;;;;5026543;28;20010;-73
2022/11/08 02:43:44;;;;;;;1.40;1.30;;;14.70;64.70;;;;;;5026446;28;20018;-72
2022/11/08 02:46:10;;;;;;;1.30;1.20;;;14.70;64.70;;;;;;5026384;28;20413;-72
2022/11/08 02:48:36;;;;;;;2.00;1.42;;;14.70;64.80;;;;;;5041743;28;20022;-72
2022/11/08 02:51:02;;;;;;;1.40;1.30;;;14.70;64.80;;;;;;5026341;28;20224;-72
2022/11/08 02:53:27;;;;;;;0.90;0.90;;;14.70;64.80;;;;;;5026255;28;20057;-72
2022/11/08 02:55:53;;;;;;;1.48;1.27;;;14.70;64.80;;;;;;5026230;28;20025;-73
2022/11/08 02:58:19;;;;;;;1.92;1.25;;;14.70;64.80;;;;;;5025246;28;20022;-72
2022/11/08 03:00:45;;;;;;;1.52;1.23;;;14.70;64.80;;;;;;5026088;28;20018;-72
2022/11/08 03:03:10;;;;;;;1.63;1.52;;;14.70;64.80;;;;;;5041516;28;20089;-72
2022/11/08 03:05:36;;;;;;;1.88;1.70;;;14.60;64.80;;;;;;5026014;28;20018;-72
2022/11/08 03:08:02;;;;;;;1.13;1.02;;;14.60;64.80;;;;;;5026064;28;20018;-72
2022/11/08 03:10:28;;;;;;;1.25;1.13;;;14.70;64.80;;;;;;5041406;28;20072;-72
2022/11/08 03:12:55;;;;;;;1.63;1.40;;;14.70;64.80;;;;;;5025961;28;20037;-72
2022/11/08 03:15:21;;;;;;;1.75;1.30;;;14.70;64.80;;;;;;5025931;28;20240;-72
2022/11/08 03:17:47;;;;;;;1.40;1.30;;;14.60;64.80;;;;;;5025775;28;20052;-72
2022/11/08 03:20:12;;;;;;;1.83;1.55;;;14.60;64.70;;;;;;5025715;28;20018;-71
2022/11/08 03:22:38;;;;;;;1.20;1.08;;;14.70;64.80;;;;;;5025741;28;20025;-72
2022/11/08 03:25:04;;;;;;;1.40;1.30;;;14.60;64.80;;;;;;5025669;28;20076;-72
2022/11/08 03:27:30;;;;;;;2.33;1.65;;;14.60;64.80;;;;;;5025531;28;20486;-72
2022/11/08 03:29:56;;;;;;;1.42;1.33;;;14.60;64.80;;;;;;5025587;28;20029;-72
2022/11/08 03:32:22;;;;;;;1.55;1.45;;;14.60;65.40;;;;;;5025578;28;20022;-72
2022/11/08 03:34:47;;;;;;;1.65;1.33;;;14.60;64.70;;;;;;5025472;28;20029;-72
2022/11/08 03:37:13;;;;;;;1.70;1.60;;;14.60;64.70;;;;;;5025500;28;20053;-72
2022/11/08 03:39:39;;;;;;;1.85;1.50;;;14.60;64.80;;;;;;5025318;28;20029;-72
2022/11/08 03:42:05;;;;;;;1.70;1.50;;;14.60;64.80;;;;;;5025353;28;20055;-72
2022/11/08 03:44:31;;;;;;;3.03;1.45;;;14.60;64.80;;;;;;5025353;28;20020;-72
2022/11/08 03:46:58;;;;;;;1.58;1.48;;;14.60;64.80;;;;;;5025251;28;20085;-73
2022/11/08 03:49:25;;;;;;;2.17;1.65;;;14.60;64.80;;;;;;5025226;28;20309;-72
2022/11/08 03:51:52;;;;;;;1.40;1.30;;;14.60;64.80;;;;;;5025216;28;20022;-72
2022/11/08 03:54:17;;;;;;;1.50;1.40;;;14.60;64.80;;;;;;5025175;28;20085;-72
2022/11/08 03:56:43;;;;;;;1.55;1.35;;;14.60;64.80;;;;;;5025098;28;20092;-72
2022/11/08 03:59:10;;;;;;;1.58;1.48;;;14.60;64.70;;;;;;5024932;28;20075;-72
2022/11/08 04:01:36;;;;;;;1.40;1.20;;;14.60;64.80;;;;;;5025038;28;20033;-72
2022/11/08 04:04:02;;;;;;;1.75;1.40;;;14.60;64.80;;;;;;5024963;28;20209;-72
2022/11/08 04:06:28;;;;;;;2.75;1.00;;;14.60;64.80;;;;;;5040250;28;20253;-72
2022/11/08 04:08:54;;;;;;;0.93;0.93;;;14.60;64.80;;;;;;5024782;28;20040;-72
2022/11/08 04:16:47;;;;;;;2.75;1.23;;;14.60;65.50;;;;;;5024785;28;20372;-72
2022/11/08 04:21:58;;;;;;;1.88;1.10;;;14.60;64.80;;;;;;5024692;28;20017;-71
2022/11/08 04:24:23;;;;;;;1.42;1.33;;;14.60;64.80;;;;;;5024574;28;20021;-71
2022/11/08 04:26:49;;;;;;;1.35;1.25;;;14.60;64.90;;;;;;5024568;28;20033;-72
2022/11/08 04:29:15;;;;;;;1.60;1.50;;;14.60;64.80;;;;;;5024357;28;20057;-71
2022/11/08 04:31:41;;;;;;;1.70;1.30;;;14.60;64.80;;;;;;5024456;28;20190;-72
2022/11/08 04:34:07;;;;;;;1.48;1.30;;;14.60;64.90;;;;;;5039768;28;20030;-71
2022/11/08 04:36:33;;;;;;;1.65;1.40;;;14.60;64.90;;;;;;5024445;28;20040;-71
2022/11/08 04:38:59;;;;;;;1.38;1.25;;;14.50;64.80;;;;;;5024349;28;20297;-70
2022/11/08 04:41:26;;;;;;;1.23;1.10;;;14.60;64.80;;;;;;5024277;28;20013;-71
2022/11/08 04:43:54;;;;;;;1.92;1.27;;;14.60;64.80;;;;;;5024311;28;20073;-70
2022/11/08 04:46:22;;;;;;;2.05;1.63;;;14.60;64.70;;;;;;5024314;28;20372;-71
2022/11/08 04:48:54;;;;;;;1.45;1.35;;;14.60;64.80;;;;;;5024230;28;20370;-71
2022/11/08 04:51:28;;;;;;;1.58;1.40;;;14.60;64.80;;;;;;5024185;28;20029;-71
2022/11/08 04:53:56;;;;;;;1.25;1.15;;;14.50;64.90;;;;;;5024173;28;20021;-71
2022/11/08 04:56:22;;;;;;;1.60;1.30;;;14.50;64.90;;;;;;5024174;28;20380;-71
2022/11/08 04:58:54;;;;;;;2.20;1.50;;;14.60;64.90;;;;;;5024010;28;20217;-71
2022/11/08 05:01:24;;;;;;;1.70;1.50;;;14.60;64.90;;;;;;5024033;28;20073;-72
2022/11/08 05:03:52;;;;;;;1.50;1.40;;;14.50;64.80;;;;;;5039342;28;20274;-71
2022/11/08 05:06:23;;;;;;;1.58;1.48;;;14.50;64.80;;;;;;5039290;28;20018;-72
2022/11/08 05:08:50;;;;;;;1.65;1.35;;;14.60;64.80;;;;;;5023999;28;20325;-71
2022/11/08 05:11:19;;;;;;;2.35;1.40;;;14.50;64.70;;;;;;5039222;28;20068;-71
2022/11/08 05:13:45;;;;;;;1.88;1.67;;;14.50;64.80;;;;;;5023838;28;20032;-71
2022/11/08 05:16:14;;;;;;;1.88;1.00;;;14.50;64.80;;;;;;5039145;28;20096;-71
2022/11/08 05:18:40;;;;;;;1.58;1.20;;;14.50;64.90;;;;;;5023780;28;20041;-71
2022/11/08 05:23:52;;;;;;;1.33;1.23;;;14.50;64.90;;;;;;5023779;28;20260;-71
2022/11/08 05:26:19;;;;;;;3.13;1.45;;;14.50;64.80;;;;;;5023692;28;20018;-73
2022/11/08 05:28:46;;;;;;;1.33;1.23;;;14.50;64.80;;;;;;5023505;28;20077;-72
2022/11/08 05:31:12;;;;;;;1.88;1.45;;;14.50;64.80;;;;;;5039026;28;20093;-71
2022/11/08 05:33:38;;;;;;;1.77;1.50;;;14.50;64.90;;;;;;5039019;28;20022;-72
2022/11/08 05:36:06;;;;;;;1.38;1.27;;;14.50;64.90;;;;;;5023613;28;20065;-72
2022/11/08 05:38:32;;;;;;;1.23;1.13;;;14.50;64.90;;;;;;5023505;28;20028;-72
2022/11/08 05:41:05;;;;;;;1.92;1.55;;;14.50;64.80;;;;;;5023566;28;20018;-72
2022/11/08 05:43:31;;;;;;;1.35;1.25;;;14.50;64.80;;;;;;5038803;28;20253;-72
2022/11/08 05:45:57;;;;;;;1.83;1.33;;;14.50;64.80;;;;;;5023543;28;20025;-71
2022/11/08 05:48:23;;;;;;;1.35;1.17;;;14.50;64.90;;;;;;5023465;28;20265;-71
2022/11/08 05:50:49;;;;;;;1.40;1.30;;;14.50;64.80;;;;;;5023524;28;20021;-72
2022/11/08 05:53:15;;;;;;;1.52;1.42;;;14.50;64.90;;;;;;5038736;28;20026;-72
2022/11/08 05:55:41;;;;;;;1.52;1.30;;;14.50;64.90;;;;;;5023449;28;20060;-72
2022/11/08 05:58:07;;;;;;;1.40;1.30;;;14.50;64.80;;;;;;5023342;28;20049;-71
2022/11/08 06:00:33;;;;;;;1.42;1.33;;;14.50;64.80;;;;;;5038700;28;20092;-72
2022/11/08 06:03:01;;;;;;;1.90;1.60;;;14.50;64.90;;;;;;5038649;28;20018;-72
2022/11/08 06:05:27;;;;;;;1.30;1.20;;;14.50;64.80;;;;;;5023374;28;20064;-72
2022/11/08 06:07:53;;;;;;;1.58;1.20;;;14.50;64.80;;;;;;5023301;28;20018;-71
2022/11/08 06:10:19;;;;;;;1.65;1.23;;;14.50;64.80;;;;;;5023365;28;20018;-72
2022/11/08 06:12:45;;;;;;;2.33;1.55;;;14.50;64.80;;;;;;5038641;28;20043;-72
2022/11/08 06:15:11;;;;;;;1.73;1.40;;;14.50;64.80;;;;;;5023193;28;20017;-72
2022/11/08 06:17:37;;;;;;;1.85;1.70;;;14.50;64.80;;;;;;5023162;28;20020;-71
2022/11/08 06:20:03;;;;;;;1.63;1.38;;;14.50;64.80;;;;;;5023195;28;20021;-72
2022/11/08 06:22:31;;;;;;;1.83;1.50;;;14.50;64.70;;;;;;5023244;28;20309;-72
2022/11/08 06:24:57;;;;;;;2.40;1.50;;;14.50;64.70;;;;;;5023220;28;20013;-71
2022/11/08 06:27:22;;;;;;;1.85;1.60;;;14.50;64.60;;;;;;5038317;28;20068;-71
2022/11/08 06:29:48;;;;;;;1.48;1.38;;;14.50;64.60;;;;;;5038547;28;20248;-71
2022/11/08 06:32:14;;;;;;;1.50;1.38;;;14.50;64.60;;;;;;5023245;28;20014;-71
2022/11/08 06:34:40;;;;;;;1.45;1.30;;;14.50;64.50;;;;;;5042033;28;20029;-71
2022/11/08 06:37:06;;;;;;;1.90;1.55;;;14.50;64.50;;;;;;5026699;28;20022;-71
2022/11/08 06:39:32;;;;;;;1.35;1.25;;;14.60;64.60;;;;;;5041931;28;20274;-72
2022/11/08 06:41:59;;;;;;;1.58;1.45;;;14.60;64.50;;;;;;5026536;28;20025;-72
2022/11/08 06:44:25;;;;;;;1.25;1.10;;;14.60;64.60;;;;;;5041840;28;20060;-72
2022/11/08 06:46:54;;;;;;;1.70;1.50;;;14.50;64.50;;;;;;5026403;28;20014;-71
2022/11/08 06:49:21;;;;;;;1.52;1.20;;;14.60;64.50;;;;;;5026410;28;20347;-72
2022/11/08 06:51:47;;;;;;;1.73;1.48;;;14.50;64.50;;;;;;5041769;28;20021;-73
2022/11/08 06:54:12;;;;;;;1.80;1.58;;;14.60;64.60;;;;;;5026274;28;20383;-72
2022/11/08 06:56:38;;;;;;;1.30;1.20;;;14.50;64.60;;;;;;5026247;28;20022;-72
2022/11/08 06:59:04;;;;;;;1.25;1.15;;;14.50;64.50;;;;;;5026155;28;20033;-72
2022/11/08 07:01:29;;;;;;;1.55;1.30;;;14.60;64.50;;;;;;5026223;28;20040;-72
2022/11/08 07:03:55;;;;;;;1.63;1.42;;;14.60;64.50;;;;;;5026121;28;20028;-71
2022/11/08 07:06:21;;;;;;;3.40;1.30;;;14.60;64.40;;;;;;5026114;28;20017;-72
2022/11/08 07:08:47;;;;;;;1.75;1.45;;;14.60;64.40;;;;;;5025994;28;20026;-72
2022/11/08 07:11:12;;;;;;;3.22;1.35;;;14.60;64.40;;;;;;5025996;28;20022;-72
2022/11/08 07:13:38;;;;;;;2.50;1.30;;;14.70;64.30;;;;;;5025911;28;20021;-72
2022/11/08 07:16:04;;;;;;;1.48;1.38;;;14.70;64.10;;;;;;5025886;28;20025;-72
2022/11/08 07:18:30;;;;;;;1.58;1.30;;;14.80;64.00;;;;;;5025801;28;20029;-72
2022/11/08 07:21:00;;;;;;;1.63;1.30;;;14.80;63.90;;;;;;5025817;28;20018;-71
2022/11/08 07:23:26;;;;;;;2.17;1.73;;;14.90;63.50;;;;;;5025746;28;20022;-72
2022/11/08 07:25:51;;;;;;;1.30;1.20;;;15.00;63.20;;;;;;5025760;28;20064;-72
2022/11/08 07:28:18;;;;;;;1.55;1.45;;;15.10;63.00;;;;;;5025451;28;20050;-72
2022/11/08 07:30:45;;;;;;;1.65;1.35;;;15.10;62.80;;;;;;5041027;28;20228;-73
2022/11/08 07:33:12;;;;;;;1.60;1.50;;;15.20;62.70;;;;;;5025586;28;20048;-72
2022/11/08 07:35:38;;;;;;;1.67;1.30;;;15.20;62.60;;;;;;5040912;28;20021;-72
2022/11/08 07:38:03;;;;;;;1.20;1.08;;;15.20;62.60;;;;;;5040798;28;20048;-72
2022/11/08 07:40:29;;;;;;;1.88;1.70;;;15.20;62.60;;;;;;5025408;28;20056;-72
2022/11/08 07:42:58;;;;;;;2.42;1.67;;;15.20;62.70;;;;;;5025236;28;20018;-72
2022/11/08 07:45:25;;;;;;;2.47;1.50;;;15.10;62.90;;;;;;5040473;28;20014;-72
2022/11/08 07:47:58;;;;;;;2.30;1.77;;;15.10;63.00;;;;;;5025301;28;20018;-72
2022/11/08 07:50:25;;;;;;;1.50;1.40;;;15.10;63.20;;;;;;5025268;28;20047;-72
2022/11/08 07:52:50;;;;;;;1.63;1.50;;;15.00;63.30;;;;;;5025264;28;20022;-71
2022/11/08 07:55:16;;;;;;;1.85;1.40;;;15.00;63.40;;;;;;5040485;28;20037;-72
2022/11/08 07:57:42;;;;;;;1.58;1.48;;;15.00;63.50;;;;;;5025042;28;20017;-72
2022/11/08 08:00:09;;;;;;;1.45;1.20;;;14.90;63.80;;;;;;5040386;28;20093;-71
2022/11/08 08:02:34;;;;;;;1.60;1.50;;;14.90;64.00;;;;;;5025036;28;20013;-71
2022/11/08 08:05:00;;;;;;;1.77;1.40;;;14.90;64.10;;;;;;5040357;28;20052;-71
2022/11/08 08:07:26;;;;;;;1.40;1.30;;;14.90;64.20;;;;;;5040302;28;20068;-72
2022/11/08 08:09:52;;;;;;;2.00;1.63;;;14.90;64.30;;;;;;5024879;28;20017;-71
2022/11/08 08:12:17;;;;;;;1.50;1.40;;;14.80;64.30;;;;;;5024858;28;20081;-71
2022/11/08 08:14:43;;;;;;;1.30;1.20;;;14.80;64.30;;;;;;5040147;28;20240;-71
2022/11/08 08:17:09;;;;;;;1.50;1.40;;;14.80;64.40;;;;;;5024803;28;20022;-71
2022/11/08 08:19:35;;;;;;;1.48;1.25;;;14.80;64.50;;;;;;5024660;28;20022;-71
2022/11/08 08:22:01;;;;;;;1.35;1.25;;;14.80;64.50;;;;;;5024682;28;20101;-71
2022/11/08 08:24:26;;;;;;;1.88;1.52;;;14.80;64.50;;;;;;5024603;28;20022;-71
2022/11/08 08:26:52;;;;;;;1.30;1.20;;;14.80;64.50;;;;;;5039892;28;20085;-72
2022/11/08 08:29:18;;;;;;;1.35;1.23;;;14.80;64.50;;;;;;5024402;28;20042;-71
2022/11/08 08:31:44;;;;;;;1.63;1.52;;;14.80;64.50;;;;;;5039841;28;20045;-71
2022/11/08 08:34:10;;;;;;;1.33;1.13;;;14.80;64.50;;;;;;5039780;28;20053;-72
2022/11/08 08:36:35;;;;;;;1.55;1.20;;;14.90;64.50;;;;;;5024390;28;20042;-72
2022/11/08 08:39:01;;;;;;;1.10;1.00;;;14.90;64.40;;;;;;5024375;28;20179;-71
2022/11/08 08:41:27;;;;;;;1.20;1.10;;;14.90;64.40;;;;;;5024365;28;20080;-72
2022/11/08 08:43:54;;;;;;;1.95;1.50;;;14.90;64.40;;;;;;5024291;28;20010;-72
2022/11/08 08:46:20;;;;;;;1.23;1.10;;;14.90;64.40;;;;;;5024262;28;20022;-71
2022/11/08 08:48:46;;;;;;;1.55;1.42;;;14.90;64.40;;;;;;5039571;28;20087;-71
2022/11/08 08:51:12;;;;;;;1.60;1.38;;;15.00;64.40;;;;;;5024161;28;20056;-71
2022/11/08 08:53:38;;;;;;;1.67;1.38;;;15.00;64.40;;;;;;5024150;28;20233;-71
2022/11/08 08:56:05;;;;;;;1.25;1.15;;;14.90;64.30;;;;;;5023458;28;20336;-71
2022/11/08 08:58:31;;;;;;;1.65;1.27;;;15.00;64.20;;;;;;5024066;28;20026;-71
2022/11/08 09:01:07;;;;;;;2.25;1.33;;;15.00;64.30;;;;;;5039328;28;20257;-72
2022/11/08 09:03:33;;;;;;;1.27;1.17;;;15.00;64.20;;;;;;5024022;28;20028;-71
2022/11/08 09:06:00;;;;;;;1.58;1.33;;;15.00;64.10;;;;;;5023996;28;20077;-71
2022/11/08 09:08:27;;;;;;;1.55;1.45;;;15.10;64.00;;;;;;5039312;28;20022;-71
2022/11/08 09:11:00;;;;;;;1.52;1.38;;;15.00;64.10;;;;;;5023928;28;20013;-72
2022/11/08 09:13:27;;;;;;;1.50;1.23;;;15.10;64.10;;;;;;5023913;28;20021;-71
2022/11/08 09:15:54;;;;;;;2.50;1.42;;;15.10;64.00;;;;;;5039066;28;20053;-71
2022/11/08 09:18:20;;;;;;;1.73;1.30;;;15.10;63.90;;;;;;5023738;28;20052;-71
2022/11/08 09:20:46;;;;;;;1.33;1.23;;;15.10;63.90;;;;;;5039147;28;20018;-72
2022/11/08 09:23:15;;;;;;;1.58;1.42;;;15.10;64.60;;;;;;5023779;28;20014;-71
2022/11/08 09:25:41;;;;;;;;;;;15.20;63.90;;;;;;5024176;28;20013;-71
2022/11/08 09:28:06;;;;;;;1.92;1.52;;;15.20;63.80;;;;;;5023502;28;19976;-71
2022/11/08 09:30:32;;;;;;;2.25;1.50;;;15.20;64.00;;;;;;5038961;28;20363;-71
2022/11/08 09:32:58;;;;;;;1.50;1.40;;;15.20;63.90;;;;;;5023616;28;20085;-71
2022/11/08 09:35:23;;;;;;;1.67;1.15;;;15.20;63.90;;;;;;5023612;28;20042;-71
2022/11/08 09:37:52;;;;;;;1.55;1.30;;;15.20;63.80;;;;;;5023579;28;20041;-71
2022/11/08 09:40:29;;;;;;;1.67;1.50;;;15.30;63.70;;;;;;5023574;28;20014;-71
2022/11/08 09:43:01;;;;;;;1.25;1.05;;;15.30;63.60;;;;;;5023589;28;20025;-71
2022/11/08 09:45:36;;;;;;;2.08;1.45;;;15.30;63.70;;;;;;5023542;28;20022;-71
2022/11/08 09:48:05;;;;;;;2.05;1.52;;;15.30;63.60;;;;;;5038854;28;20018;-71
2022/11/08 09:50:40;;;;;;;1.45;1.35;;;15.30;63.50;;;;;;5023499;28;20076;-71
2022/11/08 09:53:20;;;;;;;1.40;1.30;;;15.30;64.10;;;;;;5023541;28;20064;-71
2022/11/08 09:55:52;;;;;;;2.10;1.33;;;15.40;63.60;;;;;;5023475;28;20409;-71
2022/11/08 09:58:27;;;;;;;1.95;1.40;;;15.30;63.50;;;;;;5023360;28;20348;-71
2022/11/08 10:00:53;;;;;;;1.65;1.40;;;15.40;63.60;;;;;;5023472;28;20297;-71
2022/11/08 10:03:22;;;;;;;2.08;1.33;;;15.40;63.60;;;;;;5023376;28;20064;-72
2022/11/08 10:06:00;;;;;;;1.92;1.20;;;15.40;63.70;;;;;;5023357;28;20010;-72
2022/11/08 10:08:32;;;;;;;1.90;1.33;;;15.40;63.70;;;;;;5042346;28;20208;-71
2022/11/08 10:11:15;;;;;;;1.60;1.33;;;15.40;63.60;;;;;;5027222;28;20187;-72
2022/11/08 10:14:02;;;;;;;1.48;1.38;;;15.40;63.60;;;;;;5027098;28;20048;-72
2022/11/08 10:17:06;;;;;;;1.70;1.60;;;15.40;63.60;;;;;;5027068;28;20064;-72
2022/11/08 10:19:37;;;;;;;1.38;1.25;;;15.40;63.60;;;;;;5022234;28;20049;-72
2022/11/08 10:22:20;;;;;;;1.63;1.35;;;15.40;63.70;;;;;;5026910;28;20040;-71
2022/11/08 10:24:56;;;;;;;1.27;1.15;;;15.40;63.60;;;;;;5026928;28;20067;-71
2022/11/08 10:27:35;;;;;;;1.45;1.35;;;15.40;63.60;;;;;;5026706;28;20049;-71
2022/11/08 10:30:09;;;;;;;1.92;1.42;;;15.40;64.20;;;;;;5026871;28;20359;-71
2022/11/08 10:32:35;;;;;;;1.35;1.20;;;15.50;63.50;;;;;;5026783;28;20068;-72
2022/11/08 10:35:10;;;;;;;1.20;1.10;;;15.50;63.60;;;;;;5026684;28;20068;-72
2022/11/08 10:37:37;;;;;;;1.50;1.40;;;15.50;63.50;;;;;;5042016;28;20025;-72
2022/11/08 10:40:27;;;;;;;1.48;1.38;;;15.50;63.40;;;;;;5026508;28;20026;-71
2022/11/08 10:43:04;;;;;;;2.08;1.45;;;15.50;63.40;;;;;;5026603;28;20018;-71
2022/11/08 10:45:30;;;;;;;1.48;1.38;;;15.50;63.40;;;;;;5026514;28;20210;-72
2022/11/08 10:47:56;;;;;;;1.67;1.40;;;15.50;63.60;;;;;;5041834;28;20018;-71
2022/11/08 10:50:39;;;;;;;1.45;1.35;;;15.50;63.50;;;;;;5026355;28;20108;-72
2022/11/08 10:53:09;;;;;;;1.40;1.17;;;15.60;63.50;;;;;;5041739;28;20021;-72
2022/11/08 10:55:47;;;;;;;1.30;1.17;;;15.50;63.50;;;;;;5026354;28;20018;-72
2022/11/08 10:58:30;;;;;;;1.63;1.40;;;15.50;63.40;;;;;;5026269;28;20068;-72
2022/11/08 11:01:18;;;;;;;1.90;1.40;;;15.60;63.60;;;;;;5026236;28;20037;-71
2022/11/08 11:03:45;;;;;;;1.65;1.40;;;15.60;63.50;;;;;;5026197;28;20010;-71
2022/11/08 11:06:26;;;;;;;2.85;2.15;;;15.60;63.50;;;;;;5026123;28;20049;-71
2022/11/08 11:09:19;;;;;;;1.20;1.10;;;15.60;63.50;;;;;;5026107;28;20018;-71
2022/11/08 11:11:45;;;;;;;1.45;1.20;;;15.60;63.50;;;;;;5037138;28;20030;-71
2022/11/08 11:14:14;;;;;;;1.40;1.30;;;15.60;63.50;;;;;;5025971;28;20029;-71
2022/11/08 11:16:58;;;;;;;1.40;1.30;;;15.60;63.50;;;;;;5025940;28;20048;-71
2022/11/08 11:19:26;;;;;;;1.38;1.08;;;15.60;63.50;;;;;;5025050;28;20351;-71
2022/11/08 11:22:01;;;;;;;1.42;1.20;;;15.60;63.60;;;;;;5041197;28;20057;-72
2022/11/08 11:24:27;;;;;;;2.08;1.70;;;15.60;63.60;;;;;;5025759;28;20022;-72
2022/11/08 11:26:55;;;;;;;1.75;1.55;;;15.60;63.70;;;;;;5025740;28;20018;-71
2022/11/08 11:29:33;;;;;;;1.90;1.42;;;15.60;63.60;;;;;;5025517;28;20363;-72
2022/11/08 11:32:45;;;;;;;1.40;1.30;;;15.60;63.60;;;;;;5040969;28;20026;-71
2022/11/08 11:35:14;;;;;;;1.17;1.08;;;15.60;63.60;;;;;;5002428;28;20034;-72
2022/11/08 11:37:44;;;;;;;1.73;1.48;;;15.60;63.70;;;;;;5025539;28;20097;-72
2022/11/08 11:40:28;;;;;;;1.38;1.27;;;15.60;63.70;;;;;;5025400;28;20081;-71
2022/11/08 11:43:03;;;;;;;2.00;1.38;;;15.60;63.70;;;;;;5040821;28;20188;-71
2022/11/08 11:45:46;;;;;;;1.60;1.50;;;15.60;63.80;;;;;;5040732;28;20056;-72
2022/11/08 11:48:23;;;;;;;1.83;1.40;;;15.60;63.70;;;;;;5025298;28;20017;-72
2022/11/08 11:50:49;;;;;;;1.50;1.40;;;15.60;63.70;;;;;;5025281;28;20037;-72
2022/11/08 11:53:20;;;;;;;1.63;1.33;;;15.60;63.70;;;;;;5025190;28;20022;-71
2022/11/08 11:56:05;;;;;;;1.45;1.30;;;15.60;63.70;;;;;;5040506;28;20018;-71
2022/11/08 11:58:52;;;;;;;1.52;1.42;;;15.70;63.80;;;;;;5025059;28;20030;-71
2022/11/08 12:01:32;;;;;;;1.98;1.50;;;15.70;63.90;;;;;;5025120;28;20022;-71
2022/11/08 12:04:23;;;;;;;1.73;1.27;;;15.70;63.90;;;;;;5025054;28;20028;-72
2022/11/08 12:07:00;;;;;;;1.50;1.40;;;15.70;63.80;;;;;;5024967;28;20030;-71
2022/11/08 12:09:38;;;;;;;1.55;1.45;;;15.70;63.80;;;;;;5024948;28;20359;-71
2022/11/08 12:12:37;;;;;;;1.88;1.38;;;15.70;63.80;;;;;;5024824;28;20036;-71
2022/11/08 12:15:32;;;;;;;1.40;1.30;;;15.70;63.70;;;;;;5024867;28;20237;-71
2022/11/08 12:18:07;;;;;;;1.48;1.38;;;15.70;63.70;;;;;;5024714;28;20018;-71
2022/11/08 12:21:15;;;;;;;1.80;1.58;;;15.70;63.70;;;;;;5024726;28;20022;-71
2022/11/08 12:24:07;;;;;;;1.50;1.40;;;15.80;63.50;;;;;;5003968;28;20107;-71
2022/11/08 12:26:45;;;;;;;1.55;1.35;;;15.90;63.40;;;;;;5024607;28;20022;-71
2022/11/08 12:29:22;;;;;;;2.80;1.40;;;15.90;63.40;;;;;;5024376;28;20364;-72
2022/11/08 12:32:25;;;;;;;1.75;1.50;;;15.90;63.20;;;;;;5023776;28;20030;-71
2022/11/08 12:35:16;;;;;;;1.58;1.45;;;15.90;63.00;;;;;;5024420;28;20376;-71
2022/11/08 12:38:06;;;;;;;1.80;1.50;;;16.00;63.00;;;;;;5024465;28;20336;-71
2022/11/08 12:40:56;;;;;;;2.13;1.70;;;16.00;62.90;;;;;;5024368;28;20024;-71
2022/11/08 12:43:39;;;;;;;1.52;1.30;;;16.10;62.70;;;;;;5014008;28;20030;-71
2022/11/08 12:46:05;;;;;;;2.30;1.58;;;16.20;62.60;;;;;;5024319;28;20293;-71
2022/11/08 12:48:50;;;;;;;2.08;1.50;;;16.20;62.50;;;;;;5024201;28;20093;-72
2022/11/08 12:51:36;;;;;;;1.92;1.70;;;16.30;62.30;;;;;;5024246;28;20021;-72
2022/11/08 12:54:23;;;;;;;1.80;1.60;;;16.40;62.00;;;;;;5024167;28;20024;-72
2022/11/08 12:56:51;;;;;;;1.38;1.27;;;16.40;61.80;;;;;;5024127;28;20087;-72
2022/11/08 12:59:37;;;;;;;1.52;1.30;;;16.40;61.70;;;;;;5024054;28;20049;-71
2022/11/08 13:02:09;;;;;;;1.42;1.20;;;16.50;61.50;;;;;;5039400;28;20025;-71
2022/11/08 13:04:40;;;;;;;1.50;1.40;;;16.60;61.50;;;;;;5024017;28;20060;-71
2022/11/08 13:07:27;;;;;;;2.05;1.40;;;16.60;61.30;;;;;;5023984;28;20022;-71
2022/11/08 13:10:14;;;;;;;1.85;1.50;;;16.70;61.20;;;;;;5023932;28;20309;-72
2022/11/08 13:12:54;;;;;;;1.42;1.20;;;16.70;61.30;;;;;;5023899;28;20030;-72
2022/11/08 13:15:27;;;;;;;1.73;1.38;;;16.70;61.20;;;;;;5023910;28;20186;-72
2022/11/08 13:18:05;;;;;;;1.33;1.23;;;16.80;61.10;;;;;;5023777;28;20026;-72
2022/11/08 13:20:41;;;;;;;1.35;1.25;;;16.80;60.90;;;;;;5023760;28;20017;-71
2022/11/08 13:23:11;;;;;;;2.20;1.55;;;16.80;60.80;;;;;;5039126;28;20024;-72